createdAt,value
2022-10-17T00:01:06.553Z,16.23
2022-10-17T00:03:34.536Z,16.21
2022-10-17T00:06:07.641Z,16.21
2022-10-17T00:08:35.630Z,16.25
2022-10-17T00:11:06.353Z,16.26
2022-10-17T00:13:35.564Z,16.26
2022-10-17T00:16:03.156Z,16.19
2022-10-17T00:18:30.671Z,16.15
2022-10-17T00:20:58.365Z,16.09
2022-10-17T00:23:27.413Z,16.06
2022-10-17T00:26:01.536Z,16.08
2022-10-17T00:28:29.075Z,15.95
2022-10-17T00:30:58.972Z,15.84
2022-10-17T00:33:26.696Z,15.93
2022-10-17T00:36:03.735Z,15.98
2022-10-17T00:38:31.269Z,15.99
2022-10-17T00:40:59.203Z,15.96
2022-10-17T00:43:27.551Z,15.96
2022-10-17T00:45:55.178Z,15.94
2022-10-17T00:48:25.596Z,15.86
2022-10-17T00:50:53.252Z,15.88
2022-10-17T00:53:20.867Z,15.80
2022-10-17T00:55:51.675Z,15.82
2022-10-17T00:58:20.905Z,15.80
2022-10-17T01:00:49.301Z,15.76
2022-10-17T01:03:17.298Z,15.70
2022-10-17T01:05:47.560Z,15.72
2022-10-17T01:08:15.357Z,15.71
2022-10-17T01:10:56.112Z,15.71
2022-10-17T01:13:28.954Z,15.66
2022-10-17T01:16:06.299Z,15.66
2022-10-17T01:18:43.883Z,15.66
2022-10-17T01:21:28.168Z,15.70
2022-10-17T01:24:14.708Z,15.68
2022-10-17T01:27:03.224Z,15.50
2022-10-17T01:29:43.455Z,15.37
2022-10-17T01:32:17.311Z,15.42
2022-10-17T01:34:54.769Z,15.43
2022-10-17T01:37:29.443Z,15.39
2022-10-17T01:40:04.286Z,15.26
2022-10-17T01:42:37.581Z,15.19
2022-10-17T01:45:12.743Z,15.11
2022-10-17T01:47:43.958Z,15.11
2022-10-17T01:50:17.953Z,15.10
2022-10-17T01:52:51.179Z,15.08
2022-10-17T01:55:23.587Z,15.01
2022-10-17T01:57:54.169Z,14.94
2022-10-17T02:00:25.041Z,14.96
2022-10-17T02:02:58.495Z,14.90
2022-10-17T02:05:29.856Z,14.99
2022-10-17T02:07:57.438Z,15.02
2022-10-17T02:10:35.592Z,15.10
2022-10-17T02:13:10.237Z,15.10
2022-10-17T02:15:55.243Z,15.03
2022-10-17T02:18:37.229Z,14.99
2022-10-17T02:21:09.704Z,14.77
2022-10-17T02:23:42.869Z,14.78
2022-10-17T02:26:14.587Z,14.91
2022-10-17T02:28:46.985Z,14.94
2022-10-17T02:31:18.459Z,14.78
2022-10-17T02:33:54.092Z,14.53
2022-10-17T02:36:25.462Z,14.30
2022-10-17T02:38:56.085Z,14.55
2022-10-17T02:41:25.266Z,14.59
2022-10-17T02:43:57.619Z,14.67
2022-10-17T02:46:29.607Z,14.69
2022-10-17T02:49:03.759Z,14.60
2022-10-17T02:51:38.018Z,14.64
2022-10-17T02:54:10.903Z,14.71
2022-10-17T02:56:43.545Z,14.71
2022-10-17T02:59:16.118Z,14.67
2022-10-17T03:01:44.119Z,14.58
2022-10-17T03:04:15.635Z,14.51
2022-10-17T03:06:43.286Z,14.50
2022-10-17T03:09:10.798Z,14.29
2022-10-17T03:11:38.392Z,14.33
2022-10-17T03:14:05.917Z,14.42
2022-10-17T03:16:33.444Z,14.37
2022-10-17T03:19:00.956Z,14.40
2022-10-17T03:21:30.028Z,14.38
2022-10-17T03:23:57.541Z,14.36
2022-10-17T03:26:25.442Z,14.19
2022-10-17T03:28:54.507Z,14.26
2022-10-17T03:31:22.545Z,14.22
2022-10-17T03:33:50.073Z,14.16
2022-10-17T03:36:19.589Z,14.14
2022-10-17T03:38:48.811Z,14.09
2022-10-17T03:41:16.370Z,13.99
2022-10-17T03:43:43.888Z,13.75
2022-10-17T03:46:11.436Z,13.52
2022-10-17T03:48:39.115Z,13.45
2022-10-17T03:51:09.186Z,14.00
2022-10-17T03:53:36.965Z,14.18
2022-10-17T03:56:14.444Z,14.35
2022-10-17T03:58:42.433Z,14.27
2022-10-17T04:01:12.625Z,14.17
2022-10-17T04:03:40.993Z,13.73
2022-10-17T04:06:08.991Z,13.86
2022-10-17T04:08:36.547Z,13.89
2022-10-17T04:11:06.272Z,13.89
2022-10-17T04:13:35.246Z,13.88
2022-10-17T04:16:05.661Z,13.90
2022-10-17T04:18:33.618Z,13.99
2022-10-17T04:21:02.653Z,13.99
2022-10-17T04:23:30.543Z,13.99
2022-10-17T04:25:58.633Z,13.96
2022-10-17T04:28:26.758Z,13.97
2022-10-17T04:30:59.879Z,14.01
2022-10-17T04:33:27.734Z,13.91
2022-10-17T04:35:59.232Z,14.05
2022-10-17T04:38:28.578Z,14.08
2022-10-17T04:40:58.230Z,14.06
2022-10-17T04:43:26.368Z,13.93
2022-10-17T04:45:53.868Z,13.92
2022-10-17T04:48:22.889Z,13.93
2022-10-17T04:50:58.229Z,13.97
2022-10-17T04:53:26.897Z,13.88
2022-10-17T04:55:54.956Z,13.89
2022-10-17T04:58:22.973Z,13.87
2022-10-17T05:00:50.648Z,13.84
2022-10-17T05:03:18.196Z,13.83
2022-10-17T05:05:47.310Z,13.79
2022-10-17T05:08:14.931Z,13.79
2022-10-17T05:10:44.800Z,13.78
2022-10-17T05:13:12.725Z,13.76
2022-10-17T05:15:40.493Z,13.75
2022-10-17T05:18:08.381Z,13.59
2022-10-17T05:20:36.042Z,13.57
2022-10-17T05:23:04.910Z,13.62
2022-10-17T05:25:32.420Z,13.75
2022-10-17T05:27:59.959Z,13.74
2022-10-17T05:30:27.752Z,13.74
2022-10-17T05:32:56.285Z,13.73
2022-10-17T05:35:23.868Z,13.68
2022-10-17T05:37:51.374Z,13.68
2022-10-17T05:40:21.147Z,13.70
2022-10-17T05:42:49.640Z,13.79
2022-10-17T05:45:17.511Z,13.89
2022-10-17T05:47:45.077Z,13.96
2022-10-17T05:50:12.647Z,14.03
2022-10-17T05:52:41.961Z,13.93
2022-10-17T05:55:11.592Z,13.33
2022-10-17T05:57:40.447Z,13.47
2022-10-17T06:00:09.290Z,13.72
2022-10-17T06:02:36.784Z,13.84
2022-10-17T06:05:04.515Z,13.92
2022-10-17T06:07:32.036Z,14.05
2022-10-17T06:09:59.635Z,14.25
2022-10-17T06:12:27.401Z,14.43
2022-10-17T06:14:56.496Z,14.49
2022-10-17T06:17:24.039Z,14.39
2022-10-17T06:19:51.535Z,14.40
2022-10-17T06:22:19.159Z,14.13
2022-10-17T06:24:46.746Z,14.40
2022-10-17T06:27:14.239Z,14.62
2022-10-17T06:29:41.748Z,14.55
2022-10-17T06:32:14.122Z,14.90
2022-10-17T06:34:42.853Z,15.12
2022-10-17T06:37:10.442Z,15.43
2022-10-17T06:39:37.996Z,15.71
2022-10-17T06:42:05.533Z,15.94
2022-10-17T06:44:33.061Z,16.08
2022-10-17T06:47:01.479Z,16.19
2022-10-17T06:49:30.316Z,16.32
2022-10-17T06:51:57.856Z,16.43
2022-10-17T06:54:25.641Z,16.63
2022-10-17T06:56:53.162Z,16.84
2022-10-17T06:59:20.690Z,17.01
2022-10-17T07:01:48.220Z,17.08
2022-10-17T07:04:15.832Z,17.06
2022-10-17T07:06:45.230Z,17.10
2022-10-17T07:09:12.813Z,17.40
2022-10-17T07:11:40.980Z,17.74
2022-10-17T07:14:08.479Z,18.04
2022-10-17T07:16:36.040Z,18.46
2022-10-17T07:19:03.805Z,19.18
2022-10-17T07:21:35.198Z,20.14
2022-10-17T07:24:07.564Z,21.36
2022-10-17T07:26:35.093Z,22.33
2022-10-17T07:29:02.725Z,23.03
2022-10-17T07:31:30.282Z,23.46
2022-10-17T07:34:00.044Z,23.92
2022-10-17T07:36:27.698Z,23.94
2022-10-17T07:38:55.271Z,24.16
2022-10-17T07:41:24.166Z,24.56
2022-10-17T07:43:51.707Z,24.80
2022-10-17T07:46:19.255Z,25.08
2022-10-17T07:48:46.779Z,24.96
2022-10-17T07:51:14.292Z,24.63
2022-10-17T07:53:45.113Z,24.23
2022-10-17T07:56:15.738Z,24.01
2022-10-17T07:58:44.689Z,23.60
2022-10-17T08:01:15.504Z,23.49
2022-10-17T08:03:45.542Z,23.48
2022-10-17T08:06:13.866Z,24.00
2022-10-17T08:08:42.097Z,24.36
2022-10-17T08:11:11.463Z,24.70
2022-10-17T08:13:40.211Z,24.89
2022-10-17T08:16:11.053Z,24.76
2022-10-17T08:18:41.017Z,25.02
2022-10-17T08:21:08.745Z,25.06
2022-10-17T08:23:37.151Z,24.52
2022-10-17T08:26:08.101Z,24.15
2022-10-17T08:28:36.518Z,24.48
2022-10-17T08:31:05.481Z,24.43
2022-10-17T08:33:34.414Z,24.53
2022-10-17T08:36:02.793Z,24.19
2022-10-17T08:38:35.111Z,24.32
2022-10-17T08:41:06.451Z,24.14
2022-10-17T08:43:49.381Z,24.11
2022-10-17T08:46:17.003Z,24.30
2022-10-17T08:48:48.795Z,24.33
2022-10-17T08:51:20.811Z,24.73
2022-10-17T08:53:53.069Z,24.53
2022-10-17T08:56:43.992Z,24.59
2022-10-17T08:59:13.752Z,24.38
2022-10-17T09:01:49.822Z,24.67
2022-10-17T09:04:46.819Z,25.01
2022-10-17T09:07:23.279Z,24.07
2022-10-17T09:10:00.443Z,23.14
2022-10-17T09:12:36.444Z,22.72
2022-10-17T09:15:22.164Z,22.58
2022-10-17T09:17:55.718Z,22.41
2022-10-17T09:20:27.957Z,22.97
2022-10-17T09:22:58.929Z,23.52
2022-10-17T09:25:27.613Z,23.95
2022-10-17T09:28:04.217Z,24.57
2022-10-17T09:30:46.711Z,25.35
2022-10-17T09:33:34.425Z,25.45
2022-10-17T09:36:10.263Z,25.33
2022-10-17T09:38:41.586Z,26.01
2022-10-17T09:41:42.963Z,26.40
2022-10-17T09:44:30.409Z,26.01
2022-10-17T09:47:06.329Z,26.83
2022-10-17T09:49:36.533Z,27.28
2022-10-17T09:52:07.575Z,27.64
2022-10-17T09:54:43.245Z,27.71
2022-10-17T09:57:13.158Z,27.44
2022-10-17T09:59:43.743Z,27.39
2022-10-17T10:02:18.431Z,27.57
2022-10-17T10:05:05.881Z,27.92
2022-10-17T10:07:38.135Z,27.72
2022-10-17T10:10:08.399Z,27.63
2022-10-17T10:12:38.570Z,27.74
2022-10-17T10:15:33.214Z,27.99
2022-10-17T10:18:00.734Z,27.58
2022-10-17T10:20:32.690Z,27.72
2022-10-17T10:23:14.335Z,28.04
2022-10-17T10:25:55.303Z,27.46
2022-10-17T10:28:27.182Z,27.69
2022-10-17T10:30:56.528Z,27.86
2022-10-17T10:33:28.484Z,27.25
2022-10-17T10:35:59.344Z,27.72
2022-10-17T10:38:28.941Z,27.33
2022-10-17T10:40:58.541Z,26.86
2022-10-17T10:43:33.035Z,26.48
2022-10-17T10:46:01.566Z,26.65
2022-10-17T10:48:33.391Z,27.33
2022-10-17T10:51:05.162Z,27.74
2022-10-17T10:53:43.931Z,28.22
2022-10-17T10:56:18.045Z,28.24
2022-10-17T10:58:53.926Z,27.45
2022-10-17T11:01:30.283Z,27.42
2022-10-17T11:04:08.733Z,27.17
2022-10-17T11:06:40.993Z,27.54
2022-10-17T11:09:29.943Z,27.52
2022-10-17T11:12:06.332Z,27.81
2022-10-17T11:14:43.110Z,26.60
2022-10-17T11:17:20.945Z,26.44
2022-10-17T11:19:57.354Z,26.51
2022-10-17T11:22:29.474Z,26.84
2022-10-17T11:25:01.738Z,26.97
2022-10-17T11:27:30.763Z,26.78
2022-10-17T11:29:59.375Z,27.25
2022-10-17T11:32:32.810Z,26.77
2022-10-17T11:35:05.839Z,26.65
2022-10-17T11:37:38.364Z,27.35
2022-10-17T11:40:19.209Z,27.57
2022-10-17T11:42:54.845Z,27.49
2022-10-17T11:45:24.511Z,27.46
2022-10-17T11:47:55.393Z,27.05
2022-10-17T11:53:18.300Z,26.50
2022-10-17T11:55:48.383Z,26.09
2022-10-17T11:58:37.845Z,25.79
2022-10-17T12:01:16.551Z,26.12
2022-10-17T12:03:51.685Z,26.67
2022-10-17T12:06:39.158Z,27.14
2022-10-17T12:09:17.271Z,27.14
2022-10-17T12:11:54.051Z,26.77
2022-10-17T12:14:42.507Z,26.47
2022-10-17T12:17:29.110Z,26.90
2022-10-17T12:20:27.271Z,27.44
2022-10-17T12:22:56.477Z,27.28
2022-10-17T12:25:29.833Z,27.66
2022-10-17T12:28:16.052Z,27.64
2022-10-17T12:30:56.496Z,27.53
2022-10-17T12:33:35.949Z,27.41
2022-10-17T12:36:49.078Z,27.34
2022-10-17T12:39:43.517Z,27.11
2022-10-17T12:42:33.161Z,26.49
2022-10-17T12:45:02.166Z,26.45
2022-10-17T12:47:39.305Z,26.31
2022-10-17T12:50:39.835Z,26.48
2022-10-17T12:53:08.739Z,25.99
2022-10-17T12:55:36.909Z,26.24
2022-10-17T12:58:08.071Z,26.10
2022-10-17T13:00:49.826Z,26.13
2022-10-17T13:03:31.136Z,26.20
2022-10-17T13:06:01.679Z,26.03
2022-10-17T13:08:33.057Z,25.91
2022-10-17T13:11:02.098Z,26.03
2022-10-17T13:13:40.314Z,25.78
2022-10-17T13:16:09.755Z,25.42
2022-10-17T13:18:37.265Z,25.95
2022-10-17T13:21:07.602Z,25.78
2022-10-17T13:23:37.076Z,25.65
2022-10-17T13:26:15.493Z,25.61
2022-10-17T13:28:43.789Z,25.70
2022-10-17T13:34:07.104Z,26.04
2022-10-17T13:36:36.410Z,26.61
2022-10-17T13:39:12.384Z,26.11
2022-10-17T13:41:41.382Z,26.64
2022-10-17T13:44:14.153Z,27.20
2022-10-17T13:46:42.329Z,27.83
2022-10-17T13:49:16.504Z,28.40
2022-10-17T13:51:45.867Z,28.14
2022-10-17T13:54:38.269Z,28.50
2022-10-17T13:57:07.370Z,28.21
2022-10-17T13:59:39.683Z,28.10
2022-10-17T14:02:12.672Z,28.38
2022-10-17T14:05:11.550Z,28.15
2022-10-17T14:07:58.032Z,28.34
2022-10-17T14:10:25.561Z,27.77
2022-10-17T14:12:54.571Z,26.87
2022-10-17T14:15:25.291Z,25.92
2022-10-17T14:17:57.709Z,25.64
2022-10-17T14:23:35.154Z,24.45
2022-10-17T14:26:08.694Z,23.89
2022-10-17T14:28:36.684Z,23.66
2022-10-17T14:31:15.075Z,23.53
2022-10-17T14:33:50.487Z,23.79
2022-10-17T14:36:21.225Z,23.60
2022-10-17T14:38:50.939Z,23.31
2022-10-17T14:41:44.703Z,23.14
2022-10-17T14:44:20.515Z,22.68
2022-10-17T14:46:51.939Z,22.81
2022-10-17T14:49:25.311Z,22.85
2022-10-17T14:52:28.975Z,23.53
2022-10-17T14:54:57.783Z,23.51
2022-10-17T14:57:30.052Z,23.43
2022-10-17T14:59:58.568Z,23.14
2022-10-17T15:02:27.417Z,23.28
2022-10-17T15:04:55.449Z,22.51
2022-10-17T15:07:24.627Z,22.53
2022-10-17T15:09:54.141Z,22.80
2022-10-17T15:12:24.750Z,22.64
2022-10-17T15:14:52.831Z,22.73
2022-10-17T15:17:23.267Z,22.52
2022-10-17T15:19:51.281Z,22.69
2022-10-17T15:22:19.406Z,22.57
2022-10-17T15:24:48.574Z,22.74
2022-10-17T15:27:17.647Z,22.64
2022-10-17T15:29:46.209Z,22.51
2022-10-17T15:32:14.162Z,22.48
2022-10-17T15:34:42.231Z,22.58
2022-10-17T15:37:17.668Z,22.84
2022-10-17T15:39:45.742Z,22.65
2022-10-17T15:42:14.621Z,22.80
2022-10-17T15:44:44.319Z,22.73
2022-10-17T15:47:23.191Z,22.85
2022-10-17T15:49:51.193Z,22.71
2022-10-17T15:52:19.176Z,22.37
2022-10-17T15:54:46.835Z,22.23
2022-10-17T15:57:20.423Z,21.97
2022-10-17T15:59:49.517Z,21.93
2022-10-17T16:02:19.474Z,21.87
2022-10-17T16:04:48.281Z,21.26
2022-10-17T16:07:16.036Z,21.36
2022-10-17T16:09:43.560Z,21.10
2022-10-17T16:12:15.713Z,21.21
2022-10-17T16:14:44.642Z,21.02
2022-10-17T16:17:14.819Z,20.78
2022-10-17T16:19:42.722Z,20.75
2022-10-17T16:22:19.280Z,20.78
2022-10-17T16:24:46.883Z,20.65
2022-10-17T16:27:14.446Z,20.32
2022-10-17T16:29:42.125Z,20.24
2022-10-17T16:32:11.645Z,20.19
2022-10-17T16:34:39.205Z,20.01
2022-10-17T16:37:06.726Z,19.74
2022-10-17T16:39:34.285Z,19.65
2022-10-17T16:42:01.846Z,19.54
2022-10-17T16:44:29.391Z,19.01
2022-10-17T16:46:56.929Z,19.14
2022-10-17T16:49:25.813Z,19.16
2022-10-17T16:51:53.330Z,19.09
2022-10-17T16:54:20.850Z,18.98
2022-10-17T16:56:49.853Z,18.79
2022-10-17T16:59:17.372Z,18.69
2022-10-17T17:01:44.932Z,18.64
2022-10-17T17:04:12.453Z,18.63
2022-10-17T17:06:41.390Z,18.62
2022-10-17T17:09:10.134Z,18.56
2022-10-17T17:11:38.374Z,18.47
2022-10-17T17:14:09.990Z,18.33
2022-10-17T17:16:37.658Z,18.24
2022-10-17T17:19:07.508Z,18.21
2022-10-17T17:21:36.055Z,18.11
2022-10-17T17:24:06.044Z,17.98
2022-10-17T17:26:36.866Z,17.90
2022-10-17T17:29:05.173Z,17.93
2022-10-17T17:31:35.467Z,17.92
2022-10-17T17:34:03.920Z,17.88
2022-10-17T17:36:33.026Z,17.90
2022-10-17T17:39:03.632Z,17.83
2022-10-17T17:41:33.291Z,17.70
2022-10-17T17:44:01.945Z,17.68
2022-10-17T17:46:29.656Z,17.41
2022-10-17T17:48:57.276Z,17.50
2022-10-17T17:51:29.403Z,17.67
2022-10-17T17:53:58.022Z,17.62
2022-10-17T17:56:27.443Z,17.51
2022-10-17T17:58:58.607Z,17.50
2022-10-17T18:01:28.184Z,17.38
2022-10-17T18:03:58.824Z,17.19
2022-10-17T18:06:27.394Z,17.28
2022-10-17T18:08:59.141Z,17.26
2022-10-17T18:11:27.131Z,17.25
2022-10-17T18:13:57.200Z,17.22
2022-10-17T18:16:25.487Z,17.18
2022-10-17T18:18:53.098Z,17.12
2022-10-17T18:21:20.885Z,17.07
2022-10-17T18:23:49.380Z,17.11
2022-10-17T18:26:17.349Z,17.10
2022-10-17T18:28:45.925Z,17.07
2022-10-17T18:31:18.978Z,17.02
2022-10-17T18:33:47.094Z,17.04
2022-10-17T18:36:16.371Z,17.06
2022-10-17T18:38:44.293Z,16.94
2022-10-17T18:41:13.401Z,16.89
2022-10-17T18:43:42.549Z,16.83
2022-10-17T18:46:14.711Z,16.73
2022-10-17T18:48:45.935Z,16.68
2022-10-17T18:51:14.046Z,16.64
2022-10-17T18:53:42.308Z,16.59
2022-10-17T18:56:10.568Z,16.67
2022-10-17T18:58:38.612Z,16.71
2022-10-17T19:01:07.702Z,16.63
2022-10-17T19:03:35.299Z,16.64
2022-10-17T19:06:07.142Z,16.60
2022-10-17T19:08:34.839Z,16.58
2022-10-17T19:11:06.244Z,16.61
2022-10-17T19:13:34.012Z,16.39
2022-10-17T19:16:01.581Z,16.42
2022-10-17T19:18:29.147Z,16.54
2022-10-17T19:21:01.761Z,16.54
2022-10-17T19:23:31.178Z,16.45
2022-10-17T19:26:02.802Z,16.20
2022-10-17T19:28:30.820Z,16.28
2022-10-17T19:30:58.472Z,16.30
2022-10-17T19:33:26.352Z,16.35
2022-10-17T19:35:57.879Z,16.32
2022-10-17T19:38:25.534Z,16.15
2022-10-17T19:40:54.562Z,16.13
2022-10-17T19:43:22.886Z,16.35
2022-10-17T19:45:57.387Z,16.24
2022-10-17T19:48:25.585Z,16.18
2022-10-17T19:50:53.820Z,16.22
2022-10-17T19:53:23.423Z,16.23
2022-10-17T19:55:51.028Z,16.17
2022-10-17T19:58:20.516Z,16.15
2022-10-17T20:00:48.810Z,15.84
2022-10-17T20:03:16.363Z,15.93
2022-10-17T20:05:43.924Z,16.09
2022-10-17T20:08:11.502Z,16.17
2022-10-17T20:10:39.245Z,16.08
2022-10-17T20:13:07.062Z,16.07
2022-10-17T20:15:36.326Z,15.98
2022-10-17T20:18:04.257Z,15.87
2022-10-17T20:20:32.058Z,15.62
2022-10-17T20:22:59.566Z,15.43
2022-10-17T20:25:27.090Z,15.63
2022-10-17T20:27:54.664Z,15.63
2022-10-17T20:30:22.232Z,15.86
2022-10-17T20:32:55.151Z,15.86
2022-10-17T20:35:23.229Z,15.82
2022-10-17T20:37:50.774Z,15.86
2022-10-17T20:40:35.423Z,15.81
2022-10-17T20:43:03.566Z,15.73
2022-10-17T20:45:44.229Z,15.67
2022-10-17T20:48:20.336Z,15.62
2022-10-17T20:50:47.982Z,15.61
2022-10-17T20:53:36.646Z,15.55
2022-10-17T20:56:05.724Z,15.39
2022-10-17T20:58:33.401Z,15.45
2022-10-17T21:01:06.764Z,14.28
2022-10-17T21:03:39.759Z,14.91
2022-10-17T21:06:10.666Z,15.14
2022-10-17T21:08:38.539Z,14.96
2022-10-17T21:11:11.398Z,14.92
2022-10-17T21:13:39.508Z,15.07
2022-10-17T21:16:08.969Z,14.43
2022-10-17T21:18:38.657Z,14.89
2022-10-17T21:21:11.096Z,15.32
2022-10-17T21:23:39.590Z,15.31
2022-10-17T21:26:09.368Z,15.07
2022-10-17T21:28:37.778Z,15.13
2022-10-17T21:31:14.767Z,15.04
2022-10-17T21:33:45.089Z,15.12
2022-10-17T21:36:13.767Z,15.20
2022-10-17T21:38:41.890Z,15.21
2022-10-17T21:41:11.034Z,15.27
2022-10-17T21:43:39.461Z,15.26
2022-10-17T21:46:09.908Z,15.31
2022-10-17T21:48:37.457Z,15.19
2022-10-17T21:51:08.829Z,15.33
2022-10-17T21:53:36.848Z,15.35
2022-10-17T21:56:08.342Z,15.26
2022-10-17T21:58:35.933Z,15.30
2022-10-17T22:01:05.790Z,15.35
2022-10-17T22:03:34.662Z,15.01
2022-10-17T22:06:12.796Z,14.98
2022-10-17T22:08:51.716Z,15.04
2022-10-17T22:11:20.984Z,15.00
2022-10-17T22:13:48.899Z,15.03
2022-10-17T22:16:17.559Z,14.91
2022-10-17T22:18:45.101Z,14.93
2022-10-17T22:21:16.108Z,15.06
2022-10-17T22:23:45.192Z,15.19
2022-10-17T22:26:14.658Z,15.17
2022-10-17T22:28:42.461Z,15.20
2022-10-17T22:31:10.382Z,15.25
2022-10-17T22:33:39.251Z,15.23
2022-10-17T22:36:08.490Z,14.94
2022-10-17T22:38:36.558Z,15.00
2022-10-17T22:41:04.709Z,15.13
2022-10-17T22:43:33.971Z,15.18
2022-10-17T22:46:03.497Z,15.19
2022-10-17T22:48:31.795Z,15.14
2022-10-17T22:51:00.645Z,15.12
2022-10-17T22:53:29.439Z,15.09
2022-10-17T22:55:58.793Z,15.04
2022-10-17T22:58:27.542Z,15.03
2022-10-17T23:00:57.014Z,15.03
2022-10-17T23:03:26.122Z,14.98
2022-10-17T23:05:53.807Z,15.00
2022-10-17T23:08:21.894Z,15.12
2022-10-17T23:10:49.884Z,15.12
2022-10-17T23:13:18.687Z,15.04
2022-10-17T23:15:46.871Z,15.00
2022-10-17T23:18:15.977Z,14.85
2022-10-17T23:20:43.571Z,14.73
2022-10-17T23:23:11.066Z,14.49
2022-10-17T23:25:38.581Z,14.56
2022-10-17T23:28:07.311Z,14.67
2022-10-17T23:30:35.670Z,14.42
2022-10-17T23:33:03.755Z,14.45
2022-10-17T23:35:33.185Z,14.41
2022-10-17T23:38:00.716Z,14.67
2022-10-17T23:40:28.421Z,14.70
2022-10-17T23:42:55.979Z,14.70
2022-10-17T23:45:23.531Z,14.69
2022-10-17T23:47:51.103Z,14.68
2022-10-17T23:50:18.922Z,14.74
2022-10-17T23:52:47.803Z,14.69
2022-10-17T23:55:15.354Z,14.71
2022-10-17T23:57:42.867Z,14.71
